sensor_id;sensor_type;location;lat;lon;timestamp;P1;durP1;ratioP1;P2;durP2;ratioP2
4375;SDS011;2202;50.866;12.750;2023-02-12T00:02:07;70.60;;;30.67;;
4375;SDS011;2202;50.866;12.750;2023-02-12T00:04:34;77.10;;;31.57;;
4375;SDS011;2202;50.866;12.750;2023-02-12T00:07:02;76.33;;;30.27;;
4375;SDS011;2202;50.866;12.750;2023-02-12T00:09:31;72.37;;;31.73;;
4375;SDS011;2202;50.866;12.750;2023-02-12T00:11:58;50.73;;;26.80;;
4375;SDS011;2202;50.866;12.750;2023-02-12T00:14:25;64.20;;;31.20;;
4375;SDS011;2202;50.866;12.750;2023-02-12T00:16:52;77.00;;;31.97;;
4375;SDS011;2202;50.866;12.750;2023-02-12T00:19:19;102.70;;;32.90;;
4375;SDS011;2202;50.866;12.750;2023-02-12T00:21:47;133.97;;;35.63;;
4375;SDS011;2202;50.866;12.750;2023-02-12T00:24:14;71.77;;;32.00;;
4375;SDS011;2202;50.866;12.750;2023-02-12T00:26:43;62.53;;;30.47;;
4375;SDS011;2202;50.866;12.750;2023-02-12T00:29:12;53.73;;;29.80;;
4375;SDS011;2202;50.866;12.750;2023-02-12T00:31:40;71.50;;;32.17;;
4375;SDS011;2202;50.866;12.750;2023-02-12T00:34:08;63.63;;;30.90;;
4375;SDS011;2202;50.866;12.750;2023-02-12T00:36:36;71.73;;;29.87;;
4375;SDS011;2202;50.866;12.750;2023-02-12T00:39:03;67.33;;;30.60;;
4375;SDS011;2202;50.866;12.750;2023-02-12T00:41:30;68.43;;;30.77;;
4375;SDS011;2202;50.866;12.750;2023-02-12T00:43:58;76.33;;;32.13;;
4375;SDS011;2202;50.866;12.750;2023-02-12T00:46:25;88.63;;;35.77;;
4375;SDS011;2202;50.866;12.750;2023-02-12T00:48:51;90.10;;;32.37;;
4375;SDS011;2202;50.866;12.750;2023-02-12T00:51:18;71.40;;;31.77;;
4375;SDS011;2202;50.866;12.750;2023-02-12T00:53:45;61.50;;;31.00;;
4375;SDS011;2202;50.866;12.750;2023-02-12T00:56:12;66.97;;;32.60;;
4375;SDS011;2202;50.866;12.750;2023-02-12T00:58:39;75.20;;;28.20;;
4375;SDS011;2202;50.866;12.750;2023-02-12T01:01:07;87.07;;;32.77;;
4375;SDS011;2202;50.866;12.750;2023-02-12T01:03:34;69.67;;;30.47;;
4375;SDS011;2202;50.866;12.750;2023-02-12T01:06:01;90.27;;;34.40;;
4375;SDS011;2202;50.866;12.750;2023-02-12T01:08:28;93.50;;;32.60;;
4375;SDS011;2202;50.866;12.750;2023-02-12T01:10:55;115.83;;;32.27;;
4375;SDS011;2202;50.866;12.750;2023-02-12T01:13:24;73.90;;;32.47;;
4375;SDS011;2202;50.866;12.750;2023-02-12T01:15:59;129.83;;;37.83;;
4375;SDS011;2202;50.866;12.750;2023-02-12T01:18:29;121.87;;;37.57;;
4375;SDS011;2202;50.866;12.750;2023-02-12T01:20:56;168.10;;;42.17;;
4375;SDS011;2202;50.866;12.750;2023-02-12T01:23:23;74.70;;;31.37;;
4375;SDS011;2202;50.866;12.750;2023-02-12T01:25:50;82.43;;;34.00;;
4375;SDS011;2202;50.866;12.750;2023-02-12T01:28:17;73.80;;;36.30;;
4375;SDS011;2202;50.866;12.750;2023-02-12T01:30:44;60.53;;;31.60;;
4375;SDS011;2202;50.866;12.750;2023-02-12T01:33:11;65.50;;;31.60;;
4375;SDS011;2202;50.866;12.750;2023-02-12T01:35:39;82.10;;;34.87;;
4375;SDS011;2202;50.866;12.750;2023-02-12T01:38:06;73.77;;;34.17;;
4375;SDS011;2202;50.866;12.750;2023-02-12T01:40:33;108.57;;;35.97;;
4375;SDS011;2202;50.866;12.750;2023-02-12T01:43:01;139.57;;;43.20;;
4375;SDS011;2202;50.866;12.750;2023-02-12T01:45:44;160.43;;;41.40;;
4375;SDS011;2202;50.866;12.750;2023-02-12T01:48:18;168.93;;;41.27;;
4375;SDS011;2202;50.866;12.750;2023-02-12T01:50:50;112.37;;;34.37;;
4375;SDS011;2202;50.866;12.750;2023-02-12T01:53:19;236.80;;;50.77;;
4375;SDS011;2202;50.866;12.750;2023-02-12T01:55:47;287.00;;;46.53;;
4375;SDS011;2202;50.866;12.750;2023-02-12T01:58:16;202.40;;;44.13;;
4375;SDS011;2202;50.866;12.750;2023-02-12T02:00:43;210.83;;;46.63;;
4375;SDS011;2202;50.866;12.750;2023-02-12T02:03:10;105.33;;;34.60;;
4375;SDS011;2202;50.866;12.750;2023-02-12T02:05:40;160.07;;;42.60;;
4375;SDS011;2202;50.866;12.750;2023-02-12T02:08:11;272.10;;;51.10;;
4375;SDS011;2202;50.866;12.750;2023-02-12T02:10:38;258.80;;;54.87;;
4375;SDS011;2202;50.866;12.750;2023-02-12T02:13:05;288.23;;;52.20;;
4375;SDS011;2202;50.866;12.750;2023-02-12T02:15:50;202.60;;;44.03;;
4375;SDS011;2202;50.866;12.750;2023-02-12T02:18:22;197.67;;;41.57;;
4375;SDS011;2202;50.866;12.750;2023-02-12T02:21:12;173.53;;;45.07;;
4375;SDS011;2202;50.866;12.750;2023-02-12T02:27:09;240.70;;;47.97;;
4375;SDS011;2202;50.866;12.750;2023-02-12T02:29:52;296.37;;;50.60;;
4375;SDS011;2202;50.866;12.750;2023-02-12T02:32:42;175.20;;;43.27;;
4375;SDS011;2202;50.866;12.750;2023-02-12T02:35:18;151.90;;;40.90;;
4375;SDS011;2202;50.866;12.750;2023-02-12T02:37:55;104.73;;;35.63;;
4375;SDS011;2202;50.866;12.750;2023-02-12T02:40:29;145.63;;;38.40;;
4375;SDS011;2202;50.866;12.750;2023-02-12T02:43:03;79.90;;;33.00;;
4375;SDS011;2202;50.866;12.750;2023-02-12T02:45:35;229.93;;;43.73;;
4375;SDS011;2202;50.866;12.750;2023-02-12T02:48:07;181.50;;;38.00;;
4375;SDS011;2202;50.866;12.750;2023-02-12T02:50:39;215.37;;;43.00;;
4375;SDS011;2202;50.866;12.750;2023-02-12T02:53:09;158.63;;;39.10;;
4375;SDS011;2202;50.866;12.750;2023-02-12T02:55:39;143.03;;;38.27;;
4375;SDS011;2202;50.866;12.750;2023-02-12T02:58:11;104.93;;;34.33;;
4375;SDS011;2202;50.866;12.750;2023-02-12T03:00:43;100.40;;;36.40;;
4375;SDS011;2202;50.866;12.750;2023-02-12T03:03:16;121.40;;;35.83;;
4375;SDS011;2202;50.866;12.750;2023-02-12T03:05:49;79.80;;;33.07;;
4375;SDS011;2202;50.866;12.750;2023-02-12T03:08:22;86.80;;;34.70;;
4375;SDS011;2202;50.866;12.750;2023-02-12T03:10:51;110.40;;;33.70;;
4375;SDS011;2202;50.866;12.750;2023-02-12T03:13:23;90.67;;;34.00;;
4375;SDS011;2202;50.866;12.750;2023-02-12T03:15:56;86.80;;;35.87;;
4375;SDS011;2202;50.866;12.750;2023-02-12T03:18:30;87.23;;;36.87;;
4375;SDS011;2202;50.866;12.750;2023-02-12T03:21:02;100.70;;;37.07;;
4375;SDS011;2202;50.866;12.750;2023-02-12T03:23:36;99.73;;;37.37;;
4375;SDS011;2202;50.866;12.750;2023-02-12T03:26:07;76.17;;;33.77;;
4375;SDS011;2202;50.866;12.750;2023-02-12T03:28:37;99.03;;;37.00;;
4375;SDS011;2202;50.866;12.750;2023-02-12T03:31:06;80.10;;;35.50;;
4375;SDS011;2202;50.866;12.750;2023-02-12T03:33:43;91.07;;;37.23;;
4375;SDS011;2202;50.866;12.750;2023-02-12T03:36:18;108.80;;;38.10;;
4375;SDS011;2202;50.866;12.750;2023-02-12T03:38:55;127.67;;;37.97;;
4375;SDS011;2202;50.866;12.750;2023-02-12T03:41:30;102.27;;;36.10;;
4375;SDS011;2202;50.866;12.750;2023-02-12T03:44:04;82.87;;;33.80;;
4375;SDS011;2202;50.866;12.750;2023-02-12T03:46:38;85.90;;;34.40;;
4375;SDS011;2202;50.866;12.750;2023-02-12T03:49:10;92.17;;;36.60;;
4375;SDS011;2202;50.866;12.750;2023-02-12T03:51:43;87.37;;;33.37;;
4375;SDS011;2202;50.866;12.750;2023-02-12T03:54:11;65.83;;;32.10;;
4375;SDS011;2202;50.866;12.750;2023-02-12T03:56:41;73.60;;;34.30;;
4375;SDS011;2202;50.866;12.750;2023-02-12T03:59:12;83.70;;;35.40;;
4375;SDS011;2202;50.866;12.750;2023-02-12T04:01:39;79.70;;;34.57;;
4375;SDS011;2202;50.866;12.750;2023-02-12T04:04:07;78.67;;;35.47;;
4375;SDS011;2202;50.866;12.750;2023-02-12T04:06:36;101.63;;;35.93;;
4375;SDS011;2202;50.866;12.750;2023-02-12T04:09:04;76.37;;;34.93;;
4375;SDS011;2202;50.866;12.750;2023-02-12T04:11:35;198.33;;;48.63;;
4375;SDS011;2202;50.866;12.750;2023-02-12T04:14:24;177.00;;;40.20;;
4375;SDS011;2202;50.866;12.750;2023-02-12T04:16:57;127.77;;;36.33;;
4375;SDS011;2202;50.866;12.750;2023-02-12T04:19:32;175.67;;;46.40;;
4375;SDS011;2202;50.866;12.750;2023-02-12T04:22:10;137.30;;;38.70;;
4375;SDS011;2202;50.866;12.750;2023-02-12T04:24:44;234.90;;;45.83;;
4375;SDS011;2202;50.866;12.750;2023-02-12T04:27:21;250.37;;;49.57;;
4375;SDS011;2202;50.866;12.750;2023-02-12T04:29:52;224.67;;;45.87;;
4375;SDS011;2202;50.866;12.750;2023-02-12T04:32:24;163.67;;;41.33;;
4375;SDS011;2202;50.866;12.750;2023-02-12T04:35:00;203.20;;;43.20;;
4375;SDS011;2202;50.866;12.750;2023-02-12T04:37:31;155.10;;;34.80;;
4375;SDS011;2202;50.866;12.750;2023-02-12T04:40:02;258.30;;;52.30;;
4375;SDS011;2202;50.866;12.750;2023-02-12T04:42:39;260.60;;;51.27;;
4375;SDS011;2202;50.866;12.750;2023-02-12T04:45:08;240.60;;;46.57;;
4375;SDS011;2202;50.866;12.750;2023-02-12T04:47:35;265.33;;;44.30;;
4375;SDS011;2202;50.866;12.750;2023-02-12T04:50:04;274.17;;;42.80;;
4375;SDS011;2202;50.866;12.750;2023-02-12T04:52:33;433.17;;;65.80;;
4375;SDS011;2202;50.866;12.750;2023-02-12T04:54:59;348.77;;;60.33;;
4375;SDS011;2202;50.866;12.750;2023-02-12T04:57:26;466.47;;;68.90;;
4375;SDS011;2202;50.866;12.750;2023-02-12T04:59:53;394.03;;;64.40;;
4375;SDS011;2202;50.866;12.750;2023-02-12T05:02:20;380.53;;;59.27;;
4375;SDS011;2202;50.866;12.750;2023-02-12T05:04:47;412.37;;;68.40;;
4375;SDS011;2202;50.866;12.750;2023-02-12T05:07:16;383.87;;;67.20;;
4375;SDS011;2202;50.866;12.750;2023-02-12T05:09:43;301.87;;;50.93;;
4375;SDS011;2202;50.866;12.750;2023-02-12T05:12:09;382.90;;;65.87;;
4375;SDS011;2202;50.866;12.750;2023-02-12T05:14:36;306.13;;;54.23;;
4375;SDS011;2202;50.866;12.750;2023-02-12T05:17:03;198.03;;;43.37;;
4375;SDS011;2202;50.866;12.750;2023-02-12T05:19:30;331.27;;;52.83;;
4375;SDS011;2202;50.866;12.750;2023-02-12T05:21:57;291.87;;;54.17;;
4375;SDS011;2202;50.866;12.750;2023-02-12T05:24:25;181.33;;;41.03;;
4375;SDS011;2202;50.866;12.750;2023-02-12T05:26:52;243.83;;;42.77;;
4375;SDS011;2202;50.866;12.750;2023-02-12T05:29:19;93.87;;;33.17;;
4375;SDS011;2202;50.866;12.750;2023-02-12T05:31:46;214.50;;;44.17;;
4375;SDS011;2202;50.866;12.750;2023-02-12T05:34:13;301.97;;;52.50;;
4375;SDS011;2202;50.866;12.750;2023-02-12T05:36:40;221.33;;;40.80;;
4375;SDS011;2202;50.866;12.750;2023-02-12T05:39:07;353.43;;;58.70;;
4375;SDS011;2202;50.866;12.750;2023-02-12T05:41:36;195.00;;;40.73;;
4375;SDS011;2202;50.866;12.750;2023-02-12T05:44:04;278.40;;;45.13;;
4375;SDS011;2202;50.866;12.750;2023-02-12T05:46:31;258.20;;;46.47;;
4375;SDS011;2202;50.866;12.750;2023-02-12T05:48:58;291.13;;;47.30;;
4375;SDS011;2202;50.866;12.750;2023-02-12T05:51:25;419.13;;;54.83;;
4375;SDS011;2202;50.866;12.750;2023-02-12T05:53:55;422.53;;;63.13;;
4375;SDS011;2202;50.866;12.750;2023-02-12T05:56:24;394.40;;;60.70;;
4375;SDS011;2202;50.866;12.750;2023-02-12T05:58:54;162.03;;;38.53;;
4375;SDS011;2202;50.866;12.750;2023-02-12T06:01:22;250.03;;;46.77;;
4375;SDS011;2202;50.866;12.750;2023-02-12T06:03:51;168.53;;;43.60;;
4375;SDS011;2202;50.866;12.750;2023-02-12T06:06:18;266.87;;;47.43;;
4375;SDS011;2202;50.866;12.750;2023-02-12T06:08:47;239.80;;;43.00;;
4375;SDS011;2202;50.866;12.750;2023-02-12T06:11:15;180.83;;;43.30;;
4375;SDS011;2202;50.866;12.750;2023-02-12T06:13:43;179.73;;;39.03;;
4375;SDS011;2202;50.866;12.750;2023-02-12T06:16:16;146.53;;;36.70;;
4375;SDS011;2202;50.866;12.750;2023-02-12T06:18:44;67.27;;;32.40;;
4375;SDS011;2202;50.866;12.750;2023-02-12T06:21:11;120.97;;;34.50;;
4375;SDS011;2202;50.866;12.750;2023-02-12T06:23:38;188.43;;;39.07;;
4375;SDS011;2202;50.866;12.750;2023-02-12T06:26:04;278.50;;;48.67;;
4375;SDS011;2202;50.866;12.750;2023-02-12T06:28:31;113.77;;;28.90;;
4375;SDS011;2202;50.866;12.750;2023-02-12T06:30:58;222.80;;;41.50;;
4375;SDS011;2202;50.866;12.750;2023-02-12T06:33:27;124.83;;;32.90;;
4375;SDS011;2202;50.866;12.750;2023-02-12T06:35:54;274.60;;;39.90;;
4375;SDS011;2202;50.866;12.750;2023-02-12T06:38:21;327.27;;;50.53;;
4375;SDS011;2202;50.866;12.750;2023-02-12T06:40:48;294.00;;;44.40;;
4375;SDS011;2202;50.866;12.750;2023-02-12T06:43:15;279.23;;;44.13;;
4375;SDS011;2202;50.866;12.750;2023-02-12T06:45:41;256.67;;;44.43;;
4375;SDS011;2202;50.866;12.750;2023-02-12T06:48:08;243.37;;;43.00;;
4375;SDS011;2202;50.866;12.750;2023-02-12T06:50:36;393.53;;;58.97;;
4375;SDS011;2202;50.866;12.750;2023-02-12T06:53:03;201.83;;;41.23;;
4375;SDS011;2202;50.866;12.750;2023-02-12T06:55:30;261.73;;;40.70;;
4375;SDS011;2202;50.866;12.750;2023-02-12T06:57:57;172.87;;;35.37;;
4375;SDS011;2202;50.866;12.750;2023-02-12T07:00:24;204.97;;;38.90;;
4375;SDS011;2202;50.866;12.750;2023-02-12T07:02:51;83.10;;;26.97;;
4375;SDS011;2202;50.866;12.750;2023-02-12T07:05:18;61.97;;;25.33;;
4375;SDS011;2202;50.866;12.750;2023-02-12T07:07:47;62.17;;;25.70;;
4375;SDS011;2202;50.866;12.750;2023-02-12T07:10:14;94.90;;;33.23;;
4375;SDS011;2202;50.866;12.750;2023-02-12T07:12:42;168.40;;;31.67;;
4375;SDS011;2202;50.866;12.750;2023-02-12T07:15:08;204.53;;;40.53;;
4375;SDS011;2202;50.866;12.750;2023-02-12T07:17:35;93.50;;;30.10;;
4375;SDS011;2202;50.866;12.750;2023-02-12T07:20:02;101.20;;;33.97;;
4375;SDS011;2202;50.866;12.750;2023-02-12T07:22:30;93.80;;;28.40;;
4375;SDS011;2202;50.866;12.750;2023-02-12T07:25:01;111.97;;;33.50;;
4375;SDS011;2202;50.866;12.750;2023-02-12T07:27:28;312.37;;;51.20;;
4375;SDS011;2202;50.866;12.750;2023-02-12T07:29:55;127.10;;;35.40;;
4375;SDS011;2202;50.866;12.750;2023-02-12T07:32:22;179.93;;;40.53;;
4375;SDS011;2202;50.866;12.750;2023-02-12T07:34:49;90.73;;;34.93;;
4375;SDS011;2202;50.866;12.750;2023-02-12T07:37:16;129.47;;;34.80;;
4375;SDS011;2202;50.866;12.750;2023-02-12T07:39:46;88.40;;;26.77;;
4375;SDS011;2202;50.866;12.750;2023-02-12T07:42:14;108.00;;;31.07;;
4375;SDS011;2202;50.866;12.750;2023-02-12T07:44:41;93.00;;;30.00;;
4375;SDS011;2202;50.866;12.750;2023-02-12T07:47:08;152.80;;;32.93;;
4375;SDS011;2202;50.866;12.750;2023-02-12T07:49:35;84.70;;;24.90;;
4375;SDS011;2202;50.866;12.750;2023-02-12T07:52:02;54.07;;;22.37;;
4375;SDS011;2202;50.866;12.750;2023-02-12T07:54:29;47.90;;;24.27;;
4375;SDS011;2202;50.866;12.750;2023-02-12T07:56:56;110.70;;;24.77;;
4375;SDS011;2202;50.866;12.750;2023-02-12T07:59:24;112.90;;;28.47;;
4375;SDS011;2202;50.866;12.750;2023-02-12T08:01:52;221.87;;;40.27;;
4375;SDS011;2202;50.866;12.750;2023-02-12T08:04:22;121.87;;;31.00;;
4375;SDS011;2202;50.866;12.750;2023-02-12T08:06:50;129.13;;;31.90;;
4375;SDS011;2202;50.866;12.750;2023-02-12T08:09:19;187.73;;;39.43;;
4375;SDS011;2202;50.866;12.750;2023-02-12T08:11:48;50.80;;;21.73;;
4375;SDS011;2202;50.866;12.750;2023-02-12T08:14:16;69.50;;;23.57;;
4375;SDS011;2202;50.866;12.750;2023-02-12T08:16:46;171.20;;;36.13;;
4375;SDS011;2202;50.866;12.750;2023-02-12T08:19:13;93.47;;;25.83;;
4375;SDS011;2202;50.866;12.750;2023-02-12T08:21:40;183.23;;;40.87;;
4375;SDS011;2202;50.866;12.750;2023-02-12T08:24:08;97.53;;;28.60;;
4375;SDS011;2202;50.866;12.750;2023-02-12T08:26:36;159.00;;;33.07;;
4375;SDS011;2202;50.866;12.750;2023-02-12T08:29:05;278.60;;;40.90;;
4375;SDS011;2202;50.866;12.750;2023-02-12T08:31:33;219.67;;;37.07;;
4375;SDS011;2202;50.866;12.750;2023-02-12T08:34:04;212.47;;;38.13;;
4375;SDS011;2202;50.866;12.750;2023-02-12T08:36:34;322.97;;;47.83;;
4375;SDS011;2202;50.866;12.750;2023-02-12T08:39:03;340.73;;;53.00;;
4375;SDS011;2202;50.866;12.750;2023-02-12T08:41:30;274.73;;;44.33;;
4375;SDS011;2202;50.866;12.750;2023-02-12T08:43:58;349.43;;;53.47;;
4375;SDS011;2202;50.866;12.750;2023-02-12T08:46:27;99.40;;;28.87;;
4375;SDS011;2202;50.866;12.750;2023-02-12T08:48:55;293.90;;;47.37;;
4375;SDS011;2202;50.866;12.750;2023-02-12T08:51:25;353.17;;;52.93;;
4375;SDS011;2202;50.866;12.750;2023-02-12T08:53:53;361.20;;;58.13;;
4375;SDS011;2202;50.866;12.750;2023-02-12T08:56:22;405.53;;;59.67;;
4375;SDS011;2202;50.866;12.750;2023-02-12T08:58:50;313.63;;;50.40;;
4375;SDS011;2202;50.866;12.750;2023-02-12T09:01:18;340.00;;;47.97;;
4375;SDS011;2202;50.866;12.750;2023-02-12T09:03:47;349.90;;;58.40;;
4375;SDS011;2202;50.866;12.750;2023-02-12T09:06:15;207.77;;;42.70;;
4375;SDS011;2202;50.866;12.750;2023-02-12T09:08:45;316.23;;;50.70;;
4375;SDS011;2202;50.866;12.750;2023-02-12T09:11:14;256.50;;;40.17;;
4375;SDS011;2202;50.866;12.750;2023-02-12T09:13:42;165.73;;;37.60;;
4375;SDS011;2202;50.866;12.750;2023-02-12T09:16:10;353.43;;;66.03;;
4375;SDS011;2202;50.866;12.750;2023-02-12T09:18:37;226.13;;;46.63;;
4375;SDS011;2202;50.866;12.750;2023-02-12T09:21:06;242.60;;;43.60;;
4375;SDS011;2202;50.866;12.750;2023-02-12T09:23:34;321.13;;;50.87;;
4375;SDS011;2202;50.866;12.750;2023-02-12T09:26:04;324.43;;;59.20;;
4375;SDS011;2202;50.866;12.750;2023-02-12T09:28:32;427.67;;;73.17;;
4375;SDS011;2202;50.866;12.750;2023-02-12T09:31:03;206.40;;;40.07;;
4375;SDS011;2202;50.866;12.750;2023-02-12T09:33:30;377.33;;;57.93;;
4375;SDS011;2202;50.866;12.750;2023-02-12T09:35:59;218.50;;;45.93;;
4375;SDS011;2202;50.866;12.750;2023-02-12T09:38:27;117.23;;;33.20;;
4375;SDS011;2202;50.866;12.750;2023-02-12T09:40:59;273.07;;;47.53;;
4375;SDS011;2202;50.866;12.750;2023-02-12T09:43:40;289.93;;;50.33;;
4375;SDS011;2202;50.866;12.750;2023-02-12T09:46:11;399.03;;;62.30;;
4375;SDS011;2202;50.866;12.750;2023-02-12T09:48:52;231.30;;;42.50;;
4375;SDS011;2202;50.866;12.750;2023-02-12T09:51:24;218.07;;;39.50;;
4375;SDS011;2202;50.866;12.750;2023-02-12T09:53:58;186.10;;;33.60;;
4375;SDS011;2202;50.866;12.750;2023-02-12T09:56:29;148.50;;;30.30;;
4375;SDS011;2202;50.866;12.750;2023-02-12T09:58:59;332.37;;;51.60;;
4375;SDS011;2202;50.866;12.750;2023-02-12T10:01:30;128.67;;;30.00;;
4375;SDS011;2202;50.866;12.750;2023-02-12T10:03:57;109.40;;;29.37;;
4375;SDS011;2202;50.866;12.750;2023-02-12T10:06:25;79.57;;;28.43;;
4375;SDS011;2202;50.866;12.750;2023-02-12T10:11:59;63.00;;;30.30;;
4375;SDS011;2202;50.866;12.750;2023-02-12T10:14:40;62.20;;;20.90;;
4375;SDS011;2202;50.866;12.750;2023-02-12T10:17:18;67.47;;;27.17;;
4375;SDS011;2202;50.866;12.750;2023-02-12T10:20:00;61.57;;;25.20;;
4375;SDS011;2202;50.866;12.750;2023-02-12T10:22:41;53.47;;;23.80;;
4375;SDS011;2202;50.866;12.750;2023-02-12T10:25:17;55.77;;;23.43;;
4375;SDS011;2202;50.866;12.750;2023-02-12T10:27:53;67.43;;;26.40;;
4375;SDS011;2202;50.866;12.750;2023-02-12T10:30:23;79.83;;;22.10;;
4375;SDS011;2202;50.866;12.750;2023-02-12T10:32:53;76.57;;;20.53;;
4375;SDS011;2202;50.866;12.750;2023-02-12T10:35:25;52.20;;;20.03;;
4375;SDS011;2202;50.866;12.750;2023-02-12T10:37:54;50.53;;;16.97;;
4375;SDS011;2202;50.866;12.750;2023-02-12T10:40:24;52.80;;;20.10;;
4375;SDS011;2202;50.866;12.750;2023-02-12T10:42:55;39.90;;;21.63;;
4375;SDS011;2202;50.866;12.750;2023-02-12T10:45:24;59.20;;;25.30;;
4375;SDS011;2202;50.866;12.750;2023-02-12T10:48:00;46.40;;;26.10;;
4375;SDS011;2202;50.866;12.750;2023-02-12T10:50:33;39.33;;;18.70;;
4375;SDS011;2202;50.866;12.750;2023-02-12T10:53:12;39.90;;;20.10;;
4375;SDS011;2202;50.866;12.750;2023-02-12T10:55:43;59.67;;;23.43;;
4375;SDS011;2202;50.866;12.750;2023-02-12T10:58:18;46.10;;;20.30;;
4375;SDS011;2202;50.866;12.750;2023-02-12T11:00:46;34.20;;;16.83;;
4375;SDS011;2202;50.866;12.750;2023-02-12T11:03:22;39.17;;;19.63;;
4375;SDS011;2202;50.866;12.750;2023-02-12T11:05:53;37.50;;;16.87;;
4375;SDS011;2202;50.866;12.750;2023-02-12T11:08:30;42.37;;;18.53;;
4375;SDS011;2202;50.866;12.750;2023-02-12T11:11:03;43.90;;;18.37;;
4375;SDS011;2202;50.866;12.750;2023-02-12T11:13:34;87.17;;;22.07;;
4375;SDS011;2202;50.866;12.750;2023-02-12T11:16:02;189.20;;;32.67;;
4375;SDS011;2202;50.866;12.750;2023-02-12T11:18:29;148.70;;;32.07;;
4375;SDS011;2202;50.866;12.750;2023-02-12T11:20:59;264.73;;;39.67;;
4375;SDS011;2202;50.866;12.750;2023-02-12T11:23:28;213.63;;;39.60;;
4375;SDS011;2202;50.866;12.750;2023-02-12T11:25:58;215.77;;;43.40;;
4375;SDS011;2202;50.866;12.750;2023-02-12T11:28:27;121.10;;;29.77;;
4375;SDS011;2202;50.866;12.750;2023-02-12T11:30:56;135.30;;;30.90;;
4375;SDS011;2202;50.866;12.750;2023-02-12T11:33:26;119.73;;;29.80;;
4375;SDS011;2202;50.866;12.750;2023-02-12T11:35:56;80.63;;;24.07;;
4375;SDS011;2202;50.866;12.750;2023-02-12T11:38:29;79.63;;;26.87;;
4375;SDS011;2202;50.866;12.750;2023-02-12T11:41:00;70.23;;;27.53;;
4375;SDS011;2202;50.866;12.750;2023-02-12T11:43:32;201.23;;;34.27;;
4375;SDS011;2202;50.866;12.750;2023-02-12T11:46:03;188.33;;;32.43;;
4375;SDS011;2202;50.866;12.750;2023-02-12T11:48:34;141.60;;;33.37;;
4375;SDS011;2202;50.866;12.750;2023-02-12T11:51:03;325.97;;;38.80;;
4375;SDS011;2202;50.866;12.750;2023-02-12T11:53:34;195.87;;;37.70;;
4375;SDS011;2202;50.866;12.750;2023-02-12T11:56:05;131.87;;;28.73;;
4375;SDS011;2202;50.866;12.750;2023-02-12T11:58:33;276.37;;;37.63;;
4375;SDS011;2202;50.866;12.750;2023-02-12T12:01:06;116.73;;;30.60;;
4375;SDS011;2202;50.866;12.750;2023-02-12T12:03:39;135.17;;;34.30;;
4375;SDS011;2202;50.866;12.750;2023-02-12T12:09:06;201.97;;;39.40;;
4375;SDS011;2202;50.866;12.750;2023-02-12T12:11:42;198.40;;;36.10;;
4375;SDS011;2202;50.866;12.750;2023-02-12T12:14:19;210.43;;;39.17;;
4375;SDS011;2202;50.866;12.750;2023-02-12T12:16:53;262.93;;;43.23;;
4375;SDS011;2202;50.866;12.750;2023-02-12T12:19:44;308.53;;;48.00;;
4375;SDS011;2202;50.866;12.750;2023-02-12T12:22:24;185.50;;;32.67;;
4375;SDS011;2202;50.866;12.750;2023-02-12T12:24:56;277.67;;;42.30;;
4375;SDS011;2202;50.866;12.750;2023-02-12T12:27:31;175.80;;;37.27;;
4375;SDS011;2202;50.866;12.750;2023-02-12T12:30:21;185.50;;;37.90;;
4375;SDS011;2202;50.866;12.750;2023-02-12T12:32:53;282.97;;;49.30;;
4375;SDS011;2202;50.866;12.750;2023-02-12T12:35:26;370.93;;;52.87;;
4375;SDS011;2202;50.866;12.750;2023-02-12T12:38:02;205.03;;;38.10;;
4375;SDS011;2202;50.866;12.750;2023-02-12T12:40:41;84.53;;;33.00;;
4375;SDS011;2202;50.866;12.750;2023-02-12T12:43:21;142.33;;;34.17;;
4375;SDS011;2202;50.866;12.750;2023-02-12T12:46:02;209.37;;;37.63;;
4375;SDS011;2202;50.866;12.750;2023-02-12T12:51:41;222.27;;;43.67;;
4375;SDS011;2202;50.866;12.750;2023-02-12T12:54:48;368.83;;;55.13;;
4375;SDS011;2202;50.866;12.750;2023-02-12T12:57:30;262.03;;;44.83;;
4375;SDS011;2202;50.866;12.750;2023-02-12T13:00:17;238.30;;;39.00;;
4375;SDS011;2202;50.866;12.750;2023-02-12T13:03:10;207.03;;;37.77;;
4375;SDS011;2202;50.866;12.750;2023-02-12T13:06:07;127.87;;;34.77;;
4375;SDS011;2202;50.866;12.750;2023-02-12T13:09:01;128.57;;;32.80;;
4375;SDS011;2202;50.866;12.750;2023-02-12T13:11:38;94.93;;;31.63;;
4375;SDS011;2202;50.866;12.750;2023-02-12T13:14:18;82.27;;;32.60;;
4375;SDS011;2202;50.866;12.750;2023-02-12T13:16:58;61.33;;;25.83;;
4375;SDS011;2202;50.866;12.750;2023-02-12T13:19:31;57.93;;;23.93;;
4375;SDS011;2202;50.866;12.750;2023-02-12T13:22:09;62.10;;;25.87;;
4375;SDS011;2202;50.866;12.750;2023-02-12T13:24:44;58.33;;;25.43;;
4375;SDS011;2202;50.866;12.750;2023-02-12T13:27:17;62.67;;;26.73;;
4375;SDS011;2202;50.866;12.750;2023-02-12T13:29:48;58.83;;;26.93;;
4375;SDS011;2202;50.866;12.750;2023-02-12T13:32:21;58.40;;;24.17;;
4375;SDS011;2202;50.866;12.750;2023-02-12T13:34:50;50.10;;;24.47;;
4375;SDS011;2202;50.866;12.750;2023-02-12T13:37:23;53.07;;;24.30;;
4375;SDS011;2202;50.866;12.750;2023-02-12T13:40:00;56.83;;;24.93;;
4375;SDS011;2202;50.866;12.750;2023-02-12T13:42:35;56.23;;;24.93;;
4375;SDS011;2202;50.866;12.750;2023-02-12T13:45:13;46.37;;;21.43;;
4375;SDS011;2202;50.866;12.750;2023-02-12T13:47:48;41.97;;;20.00;;
4375;SDS011;2202;50.866;12.750;2023-02-12T13:50:29;77.60;;;44.00;;
4375;SDS011;2202;50.866;12.750;2023-02-12T13:53:05;37.67;;;17.20;;
4375;SDS011;2202;50.866;12.750;2023-02-12T13:55:45;38.87;;;18.40;;
4375;SDS011;2202;50.866;12.750;2023-02-12T13:58:44;32.67;;;15.77;;
4375;SDS011;2202;50.866;12.750;2023-02-12T14:01:15;48.87;;;20.33;;
4375;SDS011;2202;50.866;12.750;2023-02-12T14:04:15;42.27;;;22.00;;
4375;SDS011;2202;50.866;12.750;2023-02-12T14:06:52;41.60;;;21.23;;
4375;SDS011;2202;50.866;12.750;2023-02-12T14:09:25;51.70;;;19.47;;
4375;SDS011;2202;50.866;12.750;2023-02-12T14:11:58;38.43;;;19.00;;
4375;SDS011;2202;50.866;12.750;2023-02-12T14:14:27;110.47;;;47.67;;
4375;SDS011;2202;50.866;12.750;2023-02-12T14:17:00;45.37;;;21.83;;
4375;SDS011;2202;50.866;12.750;2023-02-12T14:20:06;60.70;;;27.13;;
4375;SDS011;2202;50.866;12.750;2023-02-12T14:22:59;52.73;;;21.33;;
4375;SDS011;2202;50.866;12.750;2023-02-12T14:25:31;45.67;;;18.67;;
4375;SDS011;2202;50.866;12.750;2023-02-12T14:28:05;44.00;;;20.93;;
4375;SDS011;2202;50.866;12.750;2023-02-12T14:31:16;42.60;;;19.90;;
4375;SDS011;2202;50.866;12.750;2023-02-12T14:37:09;39.10;;;19.97;;
4375;SDS011;2202;50.866;12.750;2023-02-12T14:45:50;38.30;;;19.43;;
4375;SDS011;2202;50.866;12.750;2023-02-12T14:51:07;34.10;;;16.67;;
4375;SDS011;2202;50.866;12.750;2023-02-12T14:53:39;36.20;;;17.37;;
4375;SDS011;2202;50.866;12.750;2023-02-12T14:56:07;35.30;;;17.87;;
4375;SDS011;2202;50.866;12.750;2023-02-12T14:58:36;35.00;;;17.90;;
4375;SDS011;2202;50.866;12.750;2023-02-12T15:01:03;37.17;;;20.70;;
4375;SDS011;2202;50.866;12.750;2023-02-12T15:03:33;37.97;;;16.73;;
4375;SDS011;2202;50.866;12.750;2023-02-12T15:06:11;35.60;;;16.87;;
4375;SDS011;2202;50.866;12.750;2023-02-12T15:08:43;37.43;;;19.13;;
4375;SDS011;2202;50.866;12.750;2023-02-12T15:14:06;41.37;;;21.47;;
4375;SDS011;2202;50.866;12.750;2023-02-12T15:16:44;39.50;;;19.00;;
4375;SDS011;2202;50.866;12.750;2023-02-12T15:19:19;38.40;;;17.03;;